sensor_id;sensor_type;location;lat;lon;timestamp;pressure;altitude;pressure_sealevel;temperature;humidity
56042;BME280;48756;41.374;2.066;2024-03-02T00:00:36;100352.31;;;13.19;50.34
56042;BME280;48756;41.374;2.066;2024-03-02T00:03:02;100346.22;;;13.17;50.13
56042;BME280;48756;41.374;2.066;2024-03-02T00:05:27;100355.84;;;13.16;49.42
56042;BME280;48756;41.374;2.066;2024-03-02T00:07:53;100350.47;;;13.23;49.84
56042;BME280;48756;41.374;2.066;2024-03-02T00:10:22;100350.56;;;13.20;50.17
56042;BME280;48756;41.374;2.066;2024-03-02T00:12:50;100357.59;;;13.17;50.14
56042;BME280;48756;41.374;2.066;2024-03-02T00:15:41;100353.81;;;12.94;49.91
56042;BME280;48756;41.374;2.066;2024-03-02T00:18:21;100357.00;;;13.05;50.10
56042;BME280;48756;41.374;2.066;2024-03-02T00:20:47;100350.22;;;12.98;50.39
56042;BME280;48756;41.374;2.066;2024-03-02T00:23:14;100352.09;;;12.93;49.92
56042;BME280;48756;41.374;2.066;2024-03-02T00:25:42;100352.00;;;12.96;50.15
56042;BME280;48756;41.374;2.066;2024-03-02T00:28:19;100348.94;;;12.78;50.47
56042;BME280;48756;41.374;2.066;2024-03-02T00:30:51;100346.25;;;12.81;49.67
56042;BME280;48756;41.374;2.066;2024-03-02T00:33:18;100345.44;;;12.79;49.03
56042;BME280;48756;41.374;2.066;2024-03-02T00:35:45;100340.03;;;12.85;49.01
56042;BME280;48756;41.374;2.066;2024-03-02T00:38:10;100339.88;;;12.93;48.72
56042;BME280;48756;41.374;2.066;2024-03-02T00:40:35;100342.91;;;13.10;48.38
56042;BME280;48756;41.374;2.066;2024-03-02T00:43:01;100347.22;;;13.11;49.02
56042;BME280;48756;41.374;2.066;2024-03-02T00:45:28;100345.47;;;13.12;48.02
56042;BME280;48756;41.374;2.066;2024-03-02T00:47:54;100344.72;;;13.07;47.80
56042;BME280;48756;41.374;2.066;2024-03-02T00:50:22;100347.00;;;13.22;48.55
56042;BME280;48756;41.374;2.066;2024-03-02T00:52:47;100339.22;;;13.19;48.23
56042;BME280;48756;41.374;2.066;2024-03-02T00:55:15;100349.53;;;12.91;48.82
56042;BME280;48756;41.374;2.066;2024-03-02T00:57:43;100346.41;;;12.75;48.65
56042;BME280;48756;41.374;2.066;2024-03-02T01:00:11;100346.06;;;12.89;48.69
56042;BME280;48756;41.374;2.066;2024-03-02T01:02:40;100338.03;;;12.97;48.70
56042;BME280;48756;41.374;2.066;2024-03-02T01:05:05;100330.28;;;12.94;48.33
56042;BME280;48756;41.374;2.066;2024-03-02T01:07:31;100328.59;;;12.89;48.54
56042;BME280;48756;41.374;2.066;2024-03-02T01:09:59;100331.78;;;13.02;49.11
56042;BME280;48756;41.374;2.066;2024-03-02T01:12:24;100330.28;;;12.94;48.17
56042;BME280;48756;41.374;2.066;2024-03-02T01:14:49;100324.59;;;13.10;48.20
56042;BME280;48756;41.374;2.066;2024-03-02T01:17:15;100316.78;;;13.09;48.41
56042;BME280;48756;41.374;2.066;2024-03-02T01:19:41;100327.88;;;13.20;48.85
56042;BME280;48756;41.374;2.066;2024-03-02T01:22:09;100326.78;;;13.27;48.31
56042;BME280;48756;41.374;2.066;2024-03-02T01:24:34;100316.69;;;13.12;49.11
56042;BME280;48756;41.374;2.066;2024-03-02T01:27:00;100321.78;;;13.20;48.72
56042;BME280;48756;41.374;2.066;2024-03-02T01:29:25;100319.16;;;13.20;48.92
56042;BME280;48756;41.374;2.066;2024-03-02T01:31:50;100322.13;;;13.04;48.50
56042;BME280;48756;41.374;2.066;2024-03-02T01:34:16;100314.97;;;13.11;48.98
56042;BME280;48756;41.374;2.066;2024-03-02T01:36:41;100314.13;;;13.10;49.05
56042;BME280;48756;41.374;2.066;2024-03-02T01:39:07;100307.31;;;13.05;49.23
56042;BME280;48756;41.374;2.066;2024-03-02T01:41:34;100300.41;;;13.02;48.01
56042;BME280;48756;41.374;2.066;2024-03-02T01:44:00;100302.28;;;12.97;48.83
56042;BME280;48756;41.374;2.066;2024-03-02T01:46:25;100299.06;;;12.86;49.14
56042;BME280;48756;41.374;2.066;2024-03-02T01:48:50;100289.44;;;12.88;49.43
56042;BME280;48756;41.374;2.066;2024-03-02T01:51:16;100289.47;;;12.86;48.57
56042;BME280;48756;41.374;2.066;2024-03-02T01:53:41;100283.25;;;12.92;49.58
56042;BME280;48756;41.374;2.066;2024-03-02T01:56:06;100281.56;;;12.88;49.92
56042;BME280;48756;41.374;2.066;2024-03-02T01:58:32;100280.81;;;12.84;51.02
56042;BME280;48756;41.374;2.066;2024-03-02T02:00:57;100279.19;;;12.80;50.12
56042;BME280;48756;41.374;2.066;2024-03-02T02:03:22;100275.91;;;12.72;49.19
56042;BME280;48756;41.374;2.066;2024-03-02T02:05:48;100271.25;;;12.83;49.35
56042;BME280;48756;41.374;2.066;2024-03-02T02:08:13;100273.28;;;12.72;50.30
56042;BME280;48756;41.374;2.066;2024-03-02T02:10:38;100277.91;;;12.61;49.59
56042;BME280;48756;41.374;2.066;2024-03-02T02:13:04;100278.66;;;12.68;49.80
56042;BME280;48756;41.374;2.066;2024-03-02T02:15:29;100273.25;;;12.74;49.30
56042;BME280;48756;41.374;2.066;2024-03-02T02:17:56;100269.63;;;12.79;49.89
56042;BME280;48756;41.374;2.066;2024-03-02T02:20:22;100262.03;;;12.70;49.36
56042;BME280;48756;41.374;2.066;2024-03-02T02:22:59;100263.53;;;12.79;49.67
56042;BME280;48756;41.374;2.066;2024-03-02T02:25:24;100259.88;;;12.84;49.07
56042;BME280;48756;41.374;2.066;2024-03-02T02:27:50;100262.75;;;12.75;49.36
56042;BME280;48756;41.374;2.066;2024-03-02T02:30:19;100259.50;;;12.66;50.42
56042;BME280;48756;41.374;2.066;2024-03-02T02:32:44;100253.31;;;12.70;49.61
56042;BME280;48756;41.374;2.066;2024-03-02T02:35:10;100244.75;;;12.63;50.43
56042;BME280;48756;41.374;2.066;2024-03-02T02:37:35;100234.09;;;12.72;50.13
56042;BME280;48756;41.374;2.066;2024-03-02T02:40:01;100238.53;;;12.69;50.50
56042;BME280;48756;41.374;2.066;2024-03-02T02:42:26;100226.13;;;12.77;50.39
56042;BME280;48756;41.374;2.066;2024-03-02T02:44:51;100229.00;;;12.66;49.96
56042;BME280;48756;41.374;2.066;2024-03-02T02:47:19;100225.44;;;12.70;49.64
56042;BME280;48756;41.374;2.066;2024-03-02T02:49:45;100216.66;;;12.73;49.48
56042;BME280;48756;41.374;2.066;2024-03-02T02:52:10;100223.59;;;12.74;49.74
56042;BME280;48756;41.374;2.066;2024-03-02T02:54:37;100216.88;;;12.96;49.01
56042;BME280;48756;41.374;2.066;2024-03-02T02:57:05;100218.31;;;13.06;48.96
56042;BME280;48756;41.374;2.066;2024-03-02T02:59:30;100212.06;;;12.81;50.66
56042;BME280;48756;41.374;2.066;2024-03-02T03:01:55;100208.84;;;13.02;49.82
56042;BME280;48756;41.374;2.066;2024-03-02T03:04:21;100194.91;;;13.02;49.33
56042;BME280;48756;41.374;2.066;2024-03-02T03:06:46;100192.63;;;12.91;50.74
56042;BME280;48756;41.374;2.066;2024-03-02T03:09:11;100187.53;;;12.85;50.70
56042;BME280;48756;41.374;2.066;2024-03-02T03:11:39;100180.00;;;12.74;49.99
56042;BME280;48756;41.374;2.066;2024-03-02T03:14:04;100186.75;;;12.81;49.68
56042;BME280;48756;41.374;2.066;2024-03-02T03:16:30;100184.88;;;12.86;49.98
56042;BME280;48756;41.374;2.066;2024-03-02T03:18:55;100193.94;;;12.75;49.48
56042;BME280;48756;41.374;2.066;2024-03-02T03:21:20;100186.44;;;12.61;50.17
56042;BME280;48756;41.374;2.066;2024-03-02T03:23:46;100184.38;;;12.74;49.79
56042;BME280;48756;41.374;2.066;2024-03-02T03:26:11;100185.31;;;12.71;50.59
56042;BME280;48756;41.374;2.066;2024-03-02T03:28:37;100193.50;;;12.57;50.61
56042;BME280;48756;41.374;2.066;2024-03-02T03:31:02;100187.72;;;12.46;50.64
56042;BME280;48756;41.374;2.066;2024-03-02T03:33:28;100186.31;;;12.33;51.20
56042;BME280;48756;41.374;2.066;2024-03-02T03:35:53;100194.31;;;12.27;52.03
56042;BME280;48756;41.374;2.066;2024-03-02T03:38:19;100181.28;;;12.25;52.18
56042;BME280;48756;41.374;2.066;2024-03-02T03:40:44;100187.03;;;12.04;52.31
56042;BME280;48756;41.374;2.066;2024-03-02T03:43:10;100186.94;;;12.07;52.45
56042;BME280;48756;41.374;2.066;2024-03-02T03:45:35;100195.56;;;11.72;52.71
56042;BME280;48756;41.374;2.066;2024-03-02T03:48:01;100187.72;;;11.72;53.09
56042;BME280;48756;41.374;2.066;2024-03-02T03:50:27;100179.00;;;11.73;52.81
56042;BME280;48756;41.374;2.066;2024-03-02T03:52:52;100187.00;;;11.67;53.65
56042;BME280;48756;41.374;2.066;2024-03-02T03:55:17;100175.63;;;11.70;52.84
56042;BME280;48756;41.374;2.066;2024-03-02T03:57:43;100179.44;;;11.93;52.86
56042;BME280;48756;41.374;2.066;2024-03-02T04:00:08;100177.94;;;11.83;52.90
56042;BME280;48756;41.374;2.066;2024-03-02T04:02:35;100174.56;;;11.80;53.24
56042;BME280;48756;41.374;2.066;2024-03-02T04:05:03;100172.81;;;11.80;52.50
56042;BME280;48756;41.374;2.066;2024-03-02T04:07:33;100184.16;;;11.78;53.46
56042;BME280;48756;41.374;2.066;2024-03-02T04:10:04;100171.88;;;11.83;53.58
56042;BME280;48756;41.374;2.066;2024-03-02T04:12:29;100175.34;;;11.83;53.18
56042;BME280;48756;41.374;2.066;2024-03-02T04:14:55;100173.34;;;11.93;53.18
56042;BME280;48756;41.374;2.066;2024-03-02T04:17:20;100173.75;;;11.75;53.49
56042;BME280;48756;41.374;2.066;2024-03-02T04:19:48;100170.66;;;11.96;53.32
56042;BME280;48756;41.374;2.066;2024-03-02T04:22:15;100162.63;;;11.66;54.27
56042;BME280;48756;41.374;2.066;2024-03-02T04:24:40;100158.56;;;11.55;54.06
56042;BME280;48756;41.374;2.066;2024-03-02T04:27:05;100161.28;;;11.49;54.14
56042;BME280;48756;41.374;2.066;2024-03-02T04:29:30;100161.50;;;11.40;54.17
56042;BME280;48756;41.374;2.066;2024-03-02T04:31:58;100155.06;;;11.56;53.59
56042;BME280;48756;41.374;2.066;2024-03-02T04:34:23;100160.09;;;11.63;54.74
56042;BME280;48756;41.374;2.066;2024-03-02T04:36:49;100151.00;;;11.43;54.23
56042;BME280;48756;41.374;2.066;2024-03-02T04:39:15;100163.22;;;11.41;54.94
56042;BME280;48756;41.374;2.066;2024-03-02T04:41:40;100156.19;;;11.44;55.04
56042;BME280;48756;41.374;2.066;2024-03-02T04:44:05;100150.25;;;11.38;54.52
56042;BME280;48756;41.374;2.066;2024-03-02T04:46:33;100147.84;;;11.28;54.95
56042;BME280;48756;41.374;2.066;2024-03-02T04:48:58;100147.88;;;11.27;55.41
56042;BME280;48756;41.374;2.066;2024-03-02T04:51:23;100140.78;;;11.33;54.59
56042;BME280;48756;41.374;2.066;2024-03-02T04:53:48;100139.00;;;11.35;54.37
56042;BME280;48756;41.374;2.066;2024-03-02T04:56:16;100139.72;;;11.42;53.95
56042;BME280;48756;41.374;2.066;2024-03-02T04:59:04;100132.06;;;11.34;54.59
56042;BME280;48756;41.374;2.066;2024-03-02T05:01:31;100122.38;;;11.40;54.13
56042;BME280;48756;41.374;2.066;2024-03-02T05:03:57;100125.88;;;11.39;54.51
56042;BME280;48756;41.374;2.066;2024-03-02T05:06:23;100132.75;;;11.43;54.23
56042;BME280;48756;41.374;2.066;2024-03-02T05:08:48;100133.47;;;11.49;54.72
56042;BME280;48756;41.374;2.066;2024-03-02T05:11:16;100142.19;;;11.48;54.53
56042;BME280;48756;41.374;2.066;2024-03-02T05:14:00;100140.53;;;11.44;55.41
56042;BME280;48756;41.374;2.066;2024-03-02T05:16:26;100142.41;;;11.39;55.26
56042;BME280;48756;41.374;2.066;2024-03-02T05:18:51;100134.06;;;11.22;55.08
56042;BME280;48756;41.374;2.066;2024-03-02T05:21:16;100128.66;;;11.31;55.62
56042;BME280;48756;41.374;2.066;2024-03-02T05:23:41;100125.31;;;11.24;55.81
56042;BME280;48756;41.374;2.066;2024-03-02T05:26:07;100128.03;;;11.20;55.66
56042;BME280;48756;41.374;2.066;2024-03-02T05:28:33;100122.91;;;11.17;54.38
56042;BME280;48756;41.374;2.066;2024-03-02T05:30:58;100118.94;;;10.97;55.14
56042;BME280;48756;41.374;2.066;2024-03-02T05:33:23;100116.09;;;11.08;55.29
56042;BME280;48756;41.374;2.066;2024-03-02T05:35:51;100121.03;;;10.80;57.11
56042;BME280;48756;41.374;2.066;2024-03-02T05:38:17;100120.91;;;10.86;56.96
56042;BME280;48756;41.374;2.066;2024-03-02T05:40:42;100120.16;;;10.81;56.52
56042;BME280;48756;41.374;2.066;2024-03-02T05:43:07;100116.94;;;10.68;57.21
56042;BME280;48756;41.374;2.066;2024-03-02T05:45:33;100121.28;;;10.69;55.72
56042;BME280;48756;41.374;2.066;2024-03-02T05:47:58;100121.09;;;10.77;55.86
56042;BME280;48756;41.374;2.066;2024-03-02T05:50:26;100126.50;;;10.68;56.57
56042;BME280;48756;41.374;2.066;2024-03-02T05:52:51;100114.28;;;10.71;57.48
56042;BME280;48756;41.374;2.066;2024-03-02T05:55:17;100113.44;;;10.69;56.61
56042;BME280;48756;41.374;2.066;2024-03-02T05:57:42;100112.38;;;10.80;56.36
56042;BME280;48756;41.374;2.066;2024-03-02T06:00:24;100102.38;;;10.58;57.81
56042;BME280;48756;41.374;2.066;2024-03-02T06:02:49;100104.94;;;10.60;58.37
56042;BME280;48756;41.374;2.066;2024-03-02T06:05:14;100099.56;;;10.69;57.12
56042;BME280;48756;41.374;2.066;2024-03-02T06:07:41;100099.41;;;10.77;55.83
56042;BME280;48756;41.374;2.066;2024-03-02T06:10:06;100101.28;;;10.70;56.75
56042;BME280;48756;41.374;2.066;2024-03-02T06:12:33;100111.47;;;10.81;56.53
56042;BME280;48756;41.374;2.066;2024-03-02T06:15:02;100111.38;;;10.87;56.66
56042;BME280;48756;41.374;2.066;2024-03-02T06:17:31;100117.25;;;10.96;56.02
56042;BME280;48756;41.374;2.066;2024-03-02T06:19:56;100114.22;;;10.74;58.69
56042;BME280;48756;41.374;2.066;2024-03-02T06:22:22;100111.78;;;10.65;56.45
56042;BME280;48756;41.374;2.066;2024-03-02T06:24:50;100112.44;;;10.77;57.16
56042;BME280;48756;41.374;2.066;2024-03-02T06:27:15;100109.97;;;10.70;58.25
56042;BME280;48756;41.374;2.066;2024-03-02T06:29:40;100106.66;;;10.61;58.04
56042;BME280;48756;41.374;2.066;2024-03-02T06:32:06;100102.22;;;10.66;56.78
56042;BME280;48756;41.374;2.066;2024-03-02T06:34:31;100114.25;;;10.73;57.10
56042;BME280;48756;41.374;2.066;2024-03-02T06:36:59;100105.72;;;10.65;57.66
56042;BME280;48756;41.374;2.066;2024-03-02T06:39:24;100107.38;;;10.69;58.22
56042;BME280;48756;41.374;2.066;2024-03-02T06:41:50;100104.44;;;10.84;59.53
56042;BME280;48756;41.374;2.066;2024-03-02T06:44:16;100114.91;;;10.83;58.75
56042;BME280;48756;41.374;2.066;2024-03-02T06:46:41;100116.59;;;10.85;56.99
56042;BME280;48756;41.374;2.066;2024-03-02T06:49:06;100106.97;;;10.89;57.75
56042;BME280;48756;41.374;2.066;2024-03-02T06:51:33;100116.69;;;10.81;57.96
56042;BME280;48756;41.374;2.066;2024-03-02T06:54:01;100123.72;;;10.77;58.70
56042;BME280;48756;41.374;2.066;2024-03-02T06:56:27;100125.66;;;10.67;59.20
56042;BME280;48756;41.374;2.066;2024-03-02T06:58:52;100129.75;;;10.79;58.35
56042;BME280;48756;41.374;2.066;2024-03-02T07:01:17;100131.75;;;11.10;57.99
56042;BME280;48756;41.374;2.066;2024-03-02T07:03:42;100134.50;;;11.02;59.30
56042;BME280;48756;41.374;2.066;2024-03-02T07:06:09;100125.56;;;11.14;56.25
56042;BME280;48756;41.374;2.066;2024-03-02T07:08:34;100123.69;;;10.79;56.42
56042;BME280;48756;41.374;2.066;2024-03-02T07:11:00;100116.56;;;10.88;58.20
56042;BME280;48756;41.374;2.066;2024-03-02T07:13:25;100129.06;;;11.13;57.44
56042;BME280;48756;41.374;2.066;2024-03-02T07:15:51;100105.63;;;11.50;56.68
56042;BME280;48756;41.374;2.066;2024-03-02T07:18:29;100103.22;;;11.78;55.32
56042;BME280;48756;41.374;2.066;2024-03-02T07:20:55;100099.28;;;11.97;55.02
56042;BME280;48756;41.374;2.066;2024-03-02T07:23:23;100096.28;;;12.12;54.84
56042;BME280;48756;41.374;2.066;2024-03-02T07:25:52;100099.09;;;12.05;53.84
56042;BME280;48756;41.374;2.066;2024-03-02T07:28:19;100104.97;;;12.47;53.09
56042;BME280;48756;41.374;2.066;2024-03-02T07:30:45;100102.81;;;12.61;53.27
56042;BME280;48756;41.374;2.066;2024-03-02T07:33:11;100105.91;;;12.75;52.79
56042;BME280;48756;41.374;2.066;2024-03-02T07:35:36;100102.94;;;12.56;52.35
56042;BME280;48756;41.374;2.066;2024-03-02T07:38:01;100099.06;;;12.71;53.09
56042;BME280;48756;41.374;2.066;2024-03-02T07:40:27;100093.25;;;12.91;52.36
56042;BME280;48756;41.374;2.066;2024-03-02T07:42:52;100089.94;;;12.84;52.19
56042;BME280;48756;41.374;2.066;2024-03-02T07:45:20;100093.69;;;13.05;52.41
56042;BME280;48756;41.374;2.066;2024-03-02T07:47:45;100083.03;;;13.11;50.89
56042;BME280;48756;41.374;2.066;2024-03-02T07:50:11;100082.28;;;13.37;50.31
56042;BME280;48756;41.374;2.066;2024-03-02T07:52:36;100087.41;;;13.11;51.11
56042;BME280;48756;41.374;2.066;2024-03-02T07:55:02;100090.25;;;13.33;51.22
56042;BME280;48756;41.374;2.066;2024-03-02T07:57:27;100085.16;;;13.56;50.13
56042;BME280;48756;41.374;2.066;2024-03-02T07:59:52;100082.81;;;13.75;49.01
56042;BME280;48756;41.374;2.066;2024-03-02T08:02:18;100086.13;;;13.80;47.29
56042;BME280;48756;41.374;2.066;2024-03-02T08:04:45;100091.56;;;14.00;47.68
56042;BME280;48756;41.374;2.066;2024-03-02T08:07:11;100090.97;;;13.92;47.58
56042;BME280;48756;41.374;2.066;2024-03-02T08:09:36;100092.19;;;13.82;47.30
56042;BME280;48756;41.374;2.066;2024-03-02T08:12:01;100093.22;;;14.03;46.89
56042;BME280;48756;41.374;2.066;2024-03-02T08:14:27;100092.34;;;14.29;46.39
56042;BME280;48756;41.374;2.066;2024-03-02T08:16:52;100092.22;;;14.07;46.08
56042;BME280;48756;41.374;2.066;2024-03-02T08:19:17;100090.94;;;14.19;46.29
56042;BME280;48756;41.374;2.066;2024-03-02T08:21:43;100086.50;;;14.70;45.84
56042;BME280;48756;41.374;2.066;2024-03-02T08:24:12;100090.09;;;14.68;45.86
56042;BME280;48756;41.374;2.066;2024-03-02T08:26:39;100086.97;;;14.82;45.26
56042;BME280;48756;41.374;2.066;2024-03-02T08:29:05;100073.41;;;15.16;43.82
56042;BME280;48756;41.374;2.066;2024-03-02T08:31:33;100071.38;;;15.24;43.91
56042;BME280;48756;41.374;2.066;2024-03-02T08:33:58;100064.41;;;15.45;43.23
56042;BME280;48756;41.374;2.066;2024-03-02T08:36:24;100054.56;;;15.50;43.25
56042;BME280;48756;41.374;2.066;2024-03-02T08:38:49;100050.44;;;15.22;43.94
56042;BME280;48756;41.374;2.066;2024-03-02T08:41:15;100061.91;;;15.42;43.34
56042;BME280;48756;41.374;2.066;2024-03-02T08:43:41;100048.97;;;15.59;43.62
56042;BME280;48756;41.374;2.066;2024-03-02T08:46:07;100052.94;;;15.69;43.33
56042;BME280;48756;41.374;2.066;2024-03-02T08:48:32;100038.50;;;15.79;44.37
56042;BME280;48756;41.374;2.066;2024-03-02T08:50:58;100034.94;;;15.80;44.20
56042;BME280;48756;41.374;2.066;2024-03-02T08:53:23;100035.38;;;16.12;44.53
56042;BME280;48756;41.374;2.066;2024-03-02T08:55:49;100032.03;;;16.47;44.66
56042;BME280;48756;41.374;2.066;2024-03-02T08:58:14;100033.88;;;16.45;45.00
56042;BME280;48756;41.374;2.066;2024-03-02T09:00:40;100026.97;;;16.82;43.83
56042;BME280;48756;41.374;2.066;2024-03-02T09:03:05;100026.81;;;16.66;44.40
56042;BME280;48756;41.374;2.066;2024-03-02T09:05:33;100024.84;;;16.51;44.93
56042;BME280;48756;41.374;2.066;2024-03-02T09:07:58;100011.91;;;16.86;45.44
56042;BME280;48756;41.374;2.066;2024-03-02T09:10:23;100027.00;;;16.62;45.57
56042;BME280;48756;41.374;2.066;2024-03-02T09:12:49;100019.78;;;16.86;45.73
56042;BME280;48756;41.374;2.066;2024-03-02T09:15:14;100020.03;;;16.61;45.56
56042;BME280;48756;41.374;2.066;2024-03-02T09:17:40;100011.50;;;16.76;45.35
56042;BME280;48756;41.374;2.066;2024-03-02T09:20:05;100005.94;;;17.18;44.70
56042;BME280;48756;41.374;2.066;2024-03-02T09:22:31;100007.00;;;17.69;44.50
56042;BME280;48756;41.374;2.066;2024-03-02T09:24:57;100001.50;;;17.91;42.56
56042;BME280;48756;41.374;2.066;2024-03-02T09:27:23;100001.88;;;17.83;42.91
56042;BME280;48756;41.374;2.066;2024-03-02T09:29:48;100008.78;;;17.68;42.89
56042;BME280;48756;41.374;2.066;2024-03-02T09:32:16;99997.63;;;17.98;43.07
56042;BME280;48756;41.374;2.066;2024-03-02T09:34:41;99990.41;;;17.84;42.39
56042;BME280;48756;41.374;2.066;2024-03-02T09:37:07;99983.75;;;17.77;41.72
56042;BME280;48756;41.374;2.066;2024-03-02T09:39:32;99976.50;;;17.46;42.06
56042;BME280;48756;41.374;2.066;2024-03-02T09:41:58;99971.47;;;18.11;41.14
56042;BME280;48756;41.374;2.066;2024-03-02T09:44:24;99963.31;;;18.15;40.97
56042;BME280;48756;41.374;2.066;2024-03-02T09:46:50;99965.97;;;18.31;40.00
56042;BME280;48756;41.374;2.066;2024-03-02T09:49:16;99952.69;;;18.32;39.33
56042;BME280;48756;41.374;2.066;2024-03-02T09:51:43;99961.22;;;18.04;38.90
56042;BME280;48756;41.374;2.066;2024-03-02T09:54:11;99949.09;;;17.85;39.58
56042;BME280;48756;41.374;2.066;2024-03-02T09:56:37;99951.78;;;18.33;39.57
56042;BME280;48756;41.374;2.066;2024-03-02T09:59:05;99948.34;;;18.16;40.48
56042;BME280;48756;41.374;2.066;2024-03-02T10:01:30;99943.09;;;18.31;39.32
56042;BME280;48756;41.374;2.066;2024-03-02T10:03:58;99928.91;;;18.34;39.57
56042;BME280;48756;41.374;2.066;2024-03-02T10:06:26;99932.69;;;18.77;38.87
56042;BME280;48756;41.374;2.066;2024-03-02T10:08:52;99931.28;;;18.39;38.99
56042;BME280;48756;41.374;2.066;2024-03-02T10:11:27;99927.56;;;18.74;40.18
56042;BME280;48756;41.374;2.066;2024-03-02T10:14:09;99921.44;;;18.89;40.42
56042;BME280;48756;41.374;2.066;2024-03-02T10:16:41;99914.19;;;19.09;39.26
56042;BME280;48756;41.374;2.066;2024-03-02T10:21:42;99893.44;;;18.71;39.97
56042;BME280;48756;41.374;2.066;2024-03-02T10:24:11;99895.53;;;19.72;38.37
56042;BME280;48756;41.374;2.066;2024-03-02T10:26:37;99889.38;;;20.14;37.83
56042;BME280;48756;41.374;2.066;2024-03-02T10:29:03;99899.84;;;19.87;38.61
56042;BME280;48756;41.374;2.066;2024-03-02T10:31:28;99892.78;;;19.43;39.84
56042;BME280;48756;41.374;2.066;2024-03-02T10:33:56;99891.00;;;19.14;41.28
56042;BME280;48756;41.374;2.066;2024-03-02T10:36:25;99879.28;;;19.34;40.43
56042;BME280;48756;41.374;2.066;2024-03-02T10:38:51;99869.78;;;18.70;41.20
56042;BME280;48756;41.374;2.066;2024-03-02T10:41:22;99857.19;;;18.59;41.68
56042;BME280;48756;41.374;2.066;2024-03-02T10:43:48;99867.13;;;18.22;43.83
56042;BME280;48756;41.374;2.066;2024-03-02T10:46:14;99878.00;;;18.16;45.08
56042;BME280;48756;41.374;2.066;2024-03-02T10:48:39;99864.53;;;17.89;46.92
56042;BME280;48756;41.374;2.066;2024-03-02T10:51:06;99860.34;;;18.65;46.25
56042;BME280;48756;41.374;2.066;2024-03-02T10:53:31;99858.25;;;19.02;45.81
56042;BME280;48756;41.374;2.066;2024-03-02T10:55:57;99858.84;;;18.91;47.33
56042;BME280;48756;41.374;2.066;2024-03-02T10:58:27;99853.34;;;18.80;48.07
56042;BME280;48756;41.374;2.066;2024-03-02T11:00:56;99848.41;;;18.58;49.03
56042;BME280;48756;41.374;2.066;2024-03-02T11:03:23;99841.44;;;18.42;48.90
56042;BME280;48756;41.374;2.066;2024-03-02T11:05:48;99835.09;;;18.91;47.56
56042;BME280;48756;41.374;2.066;2024-03-02T11:08:16;99829.84;;;18.60;51.37
56042;BME280;48756;41.374;2.066;2024-03-02T11:10:52;99825.25;;;18.48;52.96
56042;BME280;48756;41.374;2.066;2024-03-02T11:13:24;99829.41;;;19.13;50.30
56042;BME280;48756;41.374;2.066;2024-03-02T11:15:53;99822.47;;;18.96;49.22
56042;BME280;48756;41.374;2.066;2024-03-02T11:18:20;99835.78;;;19.25;50.57
56042;BME280;48756;41.374;2.066;2024-03-02T11:20:46;99822.81;;;19.06;50.48
56042;BME280;48756;41.374;2.066;2024-03-02T11:23:12;99821.81;;;19.37;51.18
56042;BME280;48756;41.374;2.066;2024-03-02T11:25:40;99813.84;;;19.23;51.32
56042;BME280;48756;41.374;2.066;2024-03-02T11:28:06;99799.97;;;19.78;49.86
56042;BME280;48756;41.374;2.066;2024-03-02T11:33:00;99807.91;;;19.05;51.69
56042;BME280;48756;41.374;2.066;2024-03-02T11:35:25;99797.53;;;19.16;49.62
56042;BME280;48756;41.374;2.066;2024-03-02T11:37:51;99776.47;;;19.73;49.32
56042;BME280;48756;41.374;2.066;2024-03-02T11:40:21;99766.91;;;19.85;48.83
56042;BME280;48756;41.374;2.066;2024-03-02T11:42:47;99770.28;;;19.44;48.58
56042;BME280;48756;41.374;2.066;2024-03-02T11:45:12;99757.13;;;19.73;48.80
56042;BME280;48756;41.374;2.066;2024-03-02T11:47:41;99760.97;;;19.67;50.06
56042;BME280;48756;41.374;2.066;2024-03-02T11:50:11;99759.91;;;19.41;52.66
56042;BME280;48756;41.374;2.066;2024-03-02T11:52:36;99765.47;;;19.22;51.64
56042;BME280;48756;41.374;2.066;2024-03-02T11:55:03;99767.41;;;18.90;55.16
56042;BME280;48756;41.374;2.066;2024-03-02T11:57:30;99752.81;;;18.69;55.99
56042;BME280;48756;41.374;2.066;2024-03-02T11:59:56;99751.75;;;18.42;55.73
56042;BME280;48756;41.374;2.066;2024-03-02T12:02:23;99746.31;;;18.75;56.46
56042;BME280;48756;41.374;2.066;2024-03-02T12:04:48;99744.63;;;19.04;57.88
56042;BME280;48756;41.374;2.066;2024-03-02T12:07:20;99740.16;;;18.90;58.43
56042;BME280;48756;41.374;2.066;2024-03-02T12:09:50;99736.09;;;18.39;60.20
56042;BME280;48756;41.374;2.066;2024-03-02T12:12:26;99730.50;;;18.29;62.09
56042;BME280;48756;41.374;2.066;2024-03-02T12:14:52;99732.31;;;17.97;63.00
56042;BME280;48756;41.374;2.066;2024-03-02T12:17:20;99731.03;;;18.20;63.34
56042;BME280;48756;41.374;2.066;2024-03-02T12:19:45;99728.00;;;17.96;63.95
56042;BME280;48756;41.374;2.066;2024-03-02T12:22:11;99721.13;;;17.60;64.44
56042;BME280;48756;41.374;2.066;2024-03-02T12:24:36;99717.25;;;17.34;61.43
56042;BME280;48756;41.374;2.066;2024-03-02T12:27:02;99707.03;;;17.61;62.28
56042;BME280;48756;41.374;2.066;2024-03-02T12:29:28;99705.59;;;17.87;62.30
56042;BME280;48756;41.374;2.066;2024-03-02T12:31:54;99700.38;;;17.71;63.16
56042;BME280;48756;41.374;2.066;2024-03-02T12:34:19;99696.97;;;17.69;64.20
56042;BME280;48756;41.374;2.066;2024-03-02T12:36:46;99690.81;;;17.85;65.78
56042;BME280;48756;41.374;2.066;2024-03-02T12:39:14;99690.28;;;18.10;65.71
56042;BME280;48756;41.374;2.066;2024-03-02T12:41:40;99686.31;;;17.87;65.77
56042;BME280;48756;41.374;2.066;2024-03-02T12:44:11;99669.84;;;17.67;65.68
56042;BME280;48756;41.374;2.066;2024-03-02T12:46:37;99667.25;;;17.50;64.20
56042;BME280;48756;41.374;2.066;2024-03-02T12:49:09;99665.81;;;17.44;66.28
56042;BME280;48756;41.374;2.066;2024-03-02T12:51:36;99663.59;;;17.37;66.43
56042;BME280;48756;41.374;2.066;2024-03-02T12:54:01;99667.22;;;16.86;69.16